Time;durP1;ratioP1;P1;durP2;ratioP2;P2;SDS_P1;SDS_P2;PMS_P1;PMS_P2;Temp;Humidity;BMP_temperature;BMP_pressure;BME280_temperature;BME280_humidity;BME280_pressure;Samples;Min_cycle;Max_cycle;Signal;HPM_P1;HPM_P2
2021/03/15 14:19:26;;;;;;;4.07;3.67;;;18.90;52.40;;;;;;5234231;23;20704;-80
2021/03/15 14:21:52;;;;;;;5.00;3.20;;;18.90;51.80;;;;;;4890412;29;20889;-77
2021/03/15 14:24:21;;;;;;;4.20;3.80;;;19.50;51.10;;;;;;4885236;29;20454;-75
2021/03/15 14:26:47;;;;;;;4.50;4.10;;;20.70;49.40;;;;;;4883670;29;20304;-76
2021/03/15 20:26:43;;;;;;;3.67;3.30;;;20.70;64.30;;;;;;5039434;28;21116;-72
2021/03/15 20:29:09;;;;;;;3.97;3.67;;;18.40;63.20;;;;;;5025359;28;20520;-71
2021/03/15 20:31:35;;;;;;;3.67;3.40;;;16.40;67.60;;;;;;5023304;28;20686;-73
2021/03/15 20:34:00;;;;;;;3.77;3.47;;;14.90;71.90;;;;;;4997715;28;20284;-72
2021/03/15 20:36:26;;;;;;;3.80;3.50;;;13.80;76.40;;;;;;5028933;28;20199;-71
2021/03/15 20:38:54;;;;;;;3.77;3.43;;;12.80;81.90;;;;;;5023764;28;20266;-72
2021/03/15 20:41:19;;;;;;;4.00;3.70;;;11.50;88.80;;;;;;5027899;28;20443;-71
2021/03/15 20:43:47;;;;;;;4.93;3.70;;;10.60;93.50;;;;;;5020621;28;20449;-72
2021/03/15 20:46:12;;;;;;;5.13;4.30;;;10.20;97.50;;;;;;5034778;28;20782;-72
2021/03/15 20:48:38;;;;;;;3.50;3.30;;;9.90;99.90;;;;;;5022164;28;20459;-70
2021/03/15 20:51:04;;;;;;;3.70;3.40;;;9.30;99.90;;;;;;5021770;28;20198;-71
2021/03/15 20:53:30;;;;;;;3.93;3.53;;;9.10;99.90;;;;;;5024635;28;20219;-71
2021/03/15 20:55:55;;;;;;;3.37;3.17;;;9.00;99.90;;;;;;5018255;28;20467;-71
2021/03/15 20:58:23;;;;;;;6.00;3.83;;;8.70;99.90;;;;;;5028627;28;20230;-70
2021/03/15 21:00:49;;;;;;;4.63;3.40;;;8.60;99.90;;;;;;5022408;28;20589;-71
2021/03/15 21:03:14;;;;;;;3.63;3.33;;;8.50;99.90;;;;;;5030590;28;20434;-70
2021/03/15 21:05:40;;;;;;;3.97;3.63;;;8.30;99.90;;;;;;5023441;28;20473;-72
2021/03/15 21:08:06;;;;;;;3.80;2.93;;;8.30;99.90;;;;;;5027937;28;20564;-70
2021/03/15 21:10:32;;;;;;;3.47;3.13;;;8.20;99.90;;;;;;5025793;28;20184;-72
2021/03/15 21:12:58;;;;;;;4.20;3.80;;;8.10;99.90;;;;;;5025301;28;20192;-71
2021/03/15 21:15:24;;;;;;;2.87;2.67;;;8.10;99.90;;;;;;5025375;28;20183;-70
2021/03/15 21:17:50;;;;;;;4.23;3.40;;;8.10;99.90;;;;;;5025820;28;20455;-70
2021/03/15 21:20:34;;;;;;;3.70;3.40;;;8.00;99.90;;;;;;5025537;28;20447;-70
2021/03/15 21:23:02;;;;;;;5.97;3.57;;;8.00;99.90;;;;;;5026567;28;20940;-71
2021/03/15 21:25:28;;;;;;;3.50;3.20;;;8.00;99.90;;;;;;5022041;28;20467;-71
2021/03/15 21:27:55;;;;;;;5.70;3.73;;;7.90;99.90;;;;;;5023437;28;20525;-71
2021/03/15 21:30:27;;;;;;;3.40;3.20;;;8.00;99.90;;;;;;5017201;28;20540;-71
2021/03/15 21:32:53;;;;;;;3.33;3.07;;;8.00;99.90;;;;;;5026528;28;20444;-71
2021/03/15 21:35:19;;;;;;;3.30;3.10;;;7.90;99.90;;;;;;5022280;28;20775;-71
2021/03/15 21:37:44;;;;;;;4.13;3.73;;;8.00;99.90;;;;;;5012520;28;20522;-71
2021/03/15 21:40:11;;;;;;;4.53;3.20;;;8.00;99.90;;;;;;5007324;28;20208;-70
2021/03/15 21:42:36;;;;;;;3.70;3.40;;;7.90;99.90;;;;;;5012965;28;20585;-70
2021/03/15 21:45:04;;;;;;;3.90;3.10;;;7.90;99.90;;;;;;4989106;28;20478;-70
2021/03/15 21:47:30;;;;;;;4.10;3.53;;;8.00;99.90;;;;;;5012195;28;20194;-70
2021/03/15 21:49:55;;;;;;;4.63;3.50;;;7.90;99.90;;;;;;5013567;28;20456;-70
2021/03/15 21:52:21;;;;;;;3.37;3.07;;;7.90;99.90;;;;;;5014271;28;20191;-70
2021/03/15 21:54:47;;;;;;;3.50;3.20;;;7.90;99.90;;;;;;5016421;28;20189;-70
2021/03/15 21:57:13;;;;;;;3.90;3.50;;;7.90;99.90;;;;;;5006454;28;20208;-70
2021/03/15 21:59:38;;;;;;;4.10;3.20;;;8.00;99.90;;;;;;5015330;28;20217;-69
2021/03/15 22:02:04;;;;;;;3.33;3.13;;;8.00;99.90;;;;;;5010898;28;20187;-70
2021/03/15 22:04:29;;;;;;;4.00;3.50;;;8.10;99.90;;;;;;5010992;28;20201;-69
2021/03/15 22:06:55;;;;;;;3.63;3.27;;;8.10;99.90;;;;;;5008648;28;20549;-70
2021/03/15 22:09:21;;;;;;;3.13;2.83;;;8.10;99.90;;;;;;5009394;28;20217;-70
2021/03/15 22:11:47;;;;;;;3.40;3.10;;;8.10;99.90;;;;;;5011635;28;20180;-70
2021/03/15 22:14:13;;;;;;;3.60;3.30;;;8.10;99.90;;;;;;5012768;28;20490;-70
2021/03/15 22:16:39;;;;;;;5.43;3.20;;;8.10;99.90;;;;;;5014550;28;20779;-70
2021/03/15 22:19:05;;;;;;;7.13;3.30;;;8.10;99.90;;;;;;5007375;28;20590;-70
2021/03/15 22:21:30;;;;;;;3.80;3.50;;;8.10;99.90;;;;;;5016872;28;20434;-71
2021/03/15 22:23:56;;;;;;;4.13;3.50;;;8.00;99.90;;;;;;5012541;28;20283;-70
2021/03/15 22:26:22;;;;;;;3.77;3.47;;;8.00;99.90;;;;;;5009324;28;20324;-69
2021/03/15 22:28:47;;;;;;;4.07;3.67;;;7.90;99.90;;;;;;5008695;28;20251;-69
2021/03/15 22:31:13;;;;;;;4.20;3.30;;;8.00;99.90;;;;;;5009622;28;20576;-70
2021/03/15 22:33:39;;;;;;;4.27;3.97;;;8.00;99.90;;;;;;5009550;28;20177;-70
2021/03/15 22:36:06;;;;;;;3.80;3.40;;;7.90;99.90;;;;;;5009102;28;20201;-69
2021/03/15 22:38:31;;;;;;;4.47;3.50;;;7.80;99.90;;;;;;5009157;28;20515;-70
2021/03/15 22:40:57;;;;;;;3.77;3.47;;;7.80;99.90;;;;;;5010224;28;20451;-70
2021/03/15 22:43:23;;;;;;;4.97;3.70;;;7.70;99.90;;;;;;5009519;28;20724;-70
2021/03/15 22:45:48;;;;;;;3.30;3.10;;;7.70;99.90;;;;;;5012904;28;20402;-72
2021/03/15 22:48:15;;;;;;;3.63;3.30;;;7.80;99.90;;;;;;5004132;28;20212;-70
2021/03/15 22:50:41;;;;;;;4.00;3.70;;;7.70;99.90;;;;;;5016834;28;20423;-70
2021/03/15 22:53:06;;;;;;;7.37;4.10;;;7.60;99.90;;;;;;5008112;28;20447;-69
2021/03/15 22:55:32;;;;;;;5.33;3.37;;;7.60;99.90;;;;;;5008784;28;20461;-72
2021/03/15 22:57:58;;;;;;;3.70;3.50;;;7.60;99.90;;;;;;5005494;28;20277;-70
2021/03/15 23:00:28;;;;;;;5.03;4.10;;;7.70;99.90;;;;;;5006796;28;20631;-71
2021/03/15 23:02:53;;;;;;;4.10;3.70;;;7.70;99.90;;;;;;5008467;28;20200;-70
2021/03/15 23:05:22;;;;;;;4.37;3.70;;;7.60;99.90;;;;;;5002370;28;20779;-70
2021/03/15 23:07:48;;;;;;;6.83;4.10;;;7.50;99.90;;;;;;5009715;28;20439;-71
2021/03/15 23:10:16;;;;;;;11.20;4.63;;;7.40;99.90;;;;;;5009068;28;20936;-70
2021/03/15 23:12:42;;;;;;;3.80;3.50;;;7.50;99.90;;;;;;5009681;28;20428;-71
2021/03/15 23:15:17;;;;;;;6.60;3.80;;;7.40;99.90;;;;;;5005496;28;20440;-71
2021/03/15 23:17:42;;;;;;;4.90;3.60;;;7.40;99.90;;;;;;5009697;28;20813;-71
2021/03/15 23:20:10;;;;;;;6.17;4.07;;;7.30;99.90;;;;;;5011679;28;20463;-71
2021/03/15 23:22:41;;;;;;;4.40;4.00;;;7.40;99.90;;;;;;5005954;28;20567;-71
2021/03/15 23:25:09;;;;;;;7.17;3.47;;;7.30;99.90;;;;;;5008766;28;20562;-71
2021/03/15 23:27:35;;;;;;;5.10;4.40;;;7.30;99.90;;;;;;5004004;28;20433;-71
2021/03/15 23:30:01;;;;;;;4.63;4.20;;;7.30;99.90;;;;;;5005404;28;20526;-72
2021/03/15 23:32:26;;;;;;;4.37;3.97;;;7.30;99.90;;;;;;5001207;28;20204;-70
2021/03/15 23:34:52;;;;;;;4.33;3.97;;;7.30;99.90;;;;;;5007222;28;20192;-71
2021/03/15 23:37:18;;;;;;;5.17;4.03;;;7.30;99.90;;;;;;5005781;28;20189;-71
2021/03/15 23:39:43;;;;;;;6.80;4.40;;;7.20;99.90;;;;;;5005687;28;20908;-70
2021/03/15 23:42:11;;;;;;;4.70;4.20;;;7.10;99.90;;;;;;5011357;28;20192;-69
2021/03/15 23:44:37;;;;;;;4.93;3.87;;;7.10;99.90;;;;;;5004691;28;20189;-72
2021/03/15 23:47:02;;;;;;;4.80;4.30;;;7.10;99.90;;;;;;5010349;28;20436;-68
2021/03/15 23:49:29;;;;;;;4.57;4.17;;;7.10;99.90;;;;;;5004184;28;20241;-70
2021/03/15 23:51:55;;;;;;;4.40;4.00;;;7.00;99.90;;;;;;5014236;28;20915;-70
2021/03/15 23:54:20;;;;;;;5.90;3.60;;;7.00;99.90;;;;;;5009108;28;20459;-70
2021/03/15 23:56:46;;;;;;;4.33;3.57;;;7.00;99.90;;;;;;5006893;28;20203;-71
2021/03/15 23:59:12;;;;;;;6.33;3.97;;;7.00;99.90;;;;;;5004654;28;20756;-71
